Time;durP1;ratioP1;P1;durP2;ratioP2;P2;SDS_P1;SDS_P2;PMS_P1;PMS_P2;Temp;Humidity;BMP_temperature;BMP_pressure;BME280_temperature;BME280_humidity;BME280_pressure;Samples;Min_cycle;Max_cycle;Signal;HPM_P1;HPM_P2
2024/01/28 00:00:58;;;;;;;14.20;3.40;;;2.60;99.90;;;;;;5051295;28;20253;-81
2024/01/28 00:03:45;;;;;;;18.13;3.80;;;2.60;99.90;;;;;;5052344;28;20204;-81
2024/01/28 00:06:33;;;;;;;15.30;4.00;;;2.70;99.90;;;;;;5036500;28;20686;-81
2024/01/28 00:09:21;;;;;;;18.90;4.10;;;2.70;99.90;;;;;;5051653;28;20194;-80
2024/01/28 00:12:10;;;;;;;15.10;4.30;;;2.60;99.90;;;;;;5051607;28;20744;-81
2024/01/28 00:14:58;;;;;;;19.77;4.23;;;2.50;99.90;;;;;;5023176;28;20217;-81
2024/01/28 00:17:45;;;;;;;20.00;4.87;;;2.50;99.90;;;;;;5037019;28;20221;-80
2024/01/28 00:20:35;;;;;;;13.17;4.00;;;2.30;99.90;;;;;;5036871;28;20640;-81
2024/01/28 00:23:22;;;;;;;20.43;4.37;;;2.30;99.90;;;;;;5051913;28;20709;-80
2024/01/28 00:26:09;;;;;;;17.10;4.33;;;2.40;99.90;;;;;;5036612;28;20572;-81
2024/01/28 00:28:57;;;;;;;20.60;4.90;;;2.30;99.90;;;;;;5038141;28;20202;-80
2024/01/28 00:31:44;;;;;;;15.93;4.20;;;2.30;99.90;;;;;;5055911;28;20301;-80
2024/01/28 00:34:31;;;;;;;18.93;4.60;;;2.30;99.90;;;;;;5056410;28;20206;-80
2024/01/28 00:37:19;;;;;;;18.97;4.50;;;2.20;99.90;;;;;;5042045;28;20198;-80
2024/01/28 00:40:08;;;;;;;17.27;4.87;;;2.20;99.90;;;;;;5055264;28;20735;-79
2024/01/28 00:42:55;;;;;;;20.17;4.17;;;2.20;99.90;;;;;;5027307;28;20296;-80
2024/01/28 00:45:43;;;;;;;17.37;4.33;;;2.20;99.90;;;;;;5055440;28;20199;-79
2024/01/28 00:48:31;;;;;;;23.53;5.60;;;2.20;99.90;;;;;;5056180;28;20208;-79
2024/01/28 00:51:18;;;;;;;19.30;4.67;;;2.30;99.90;;;;;;5054558;28;20206;-80
2024/01/28 00:54:06;;;;;;;14.87;4.37;;;2.20;99.90;;;;;;5042203;28;20200;-80
2024/01/28 00:56:54;;;;;;;18.20;4.43;;;2.30;99.90;;;;;;5055502;28;20213;-80
2024/01/28 00:59:41;;;;;;;20.07;4.63;;;2.30;99.90;;;;;;5055397;28;20271;-80
2024/01/28 01:02:28;;;;;;;20.67;4.93;;;2.30;99.90;;;;;;5055344;28;20270;-80
2024/01/28 01:05:16;;;;;;;15.20;4.50;;;2.30;99.90;;;;;;5056724;28;20245;-80
2024/01/28 01:08:03;;;;;;;19.77;5.37;;;2.20;99.90;;;;;;5040558;28;20197;-80
2024/01/28 01:10:52;;;;;;;19.60;4.97;;;2.00;99.90;;;;;;5040075;28;20632;-80
2024/01/28 01:13:39;;;;;;;16.43;4.50;;;2.00;99.90;;;;;;5041481;28;20273;-80
2024/01/28 01:16:27;;;;;;;18.77;5.57;;;1.90;99.90;;;;;;5055135;28;20195;-80
2024/01/28 01:19:14;;;;;;;20.07;5.13;;;1.90;99.90;;;;;;5039713;28;20225;-81
2024/01/28 01:22:03;;;;;;;17.77;5.13;;;1.90;99.90;;;;;;5056110;28;20195;-81
2024/01/28 01:24:50;;;;;;;19.23;4.77;;;1.80;99.90;;;;;;5057039;28;20285;-79
2024/01/28 01:27:37;;;;;;;23.37;5.77;;;1.80;99.90;;;;;;5055175;28;20219;-81
2024/01/28 01:30:25;;;;;;;21.53;5.43;;;1.90;99.90;;;;;;5041148;28;20779;-79
2024/01/28 01:33:12;;;;;;;19.20;5.70;;;1.90;99.90;;;;;;5055153;28;20201;-80
2024/01/28 01:36:01;;;;;;;22.63;5.13;;;1.80;99.90;;;;;;5039758;28;20325;-81
2024/01/28 01:38:49;;;;;;;19.80;5.70;;;1.90;99.90;;;;;;5040454;28;20218;-81
2024/01/28 01:41:36;;;;;;;20.10;5.43;;;2.00;99.90;;;;;;5054070;28;20222;-81
2024/01/28 01:44:25;;;;;;;23.13;5.83;;;1.90;99.90;;;;;;5054591;28;20201;-81
2024/01/28 01:47:12;;;;;;;17.33;5.80;;;1.80;99.90;;;;;;5054895;28;20210;-81
2024/01/28 01:50:01;;;;;;;22.43;5.90;;;1.90;99.90;;;;;;5040703;28;20290;-81
2024/01/28 01:52:50;;;;;;;19.00;5.47;;;1.90;99.90;;;;;;5040274;28;20195;-81
2024/01/28 01:55:41;;;;;;;26.47;5.83;;;1.80;99.90;;;;;;5054417;28;20199;-81
2024/01/28 01:58:29;;;;;;;21.57;6.07;;;1.70;99.90;;;;;;5039652;28;20214;-81
2024/01/28 02:01:18;;;;;;;17.33;5.97;;;1.60;99.90;;;;;;5039787;28;20196;-81
2024/01/28 02:04:05;;;;;;;22.00;6.63;;;1.60;99.90;;;;;;5053124;28;20205;-81
2024/01/28 02:06:53;;;;;;;20.87;5.97;;;1.70;99.90;;;;;;5052662;28;20245;-82
2024/01/28 02:09:41;;;;;;;23.37;6.00;;;1.70;99.90;;;;;;5053282;28;20201;-81
2024/01/28 02:12:28;;;;;;;22.57;6.60;;;1.70;99.90;;;;;;5052937;28;20214;-81
2024/01/28 02:15:16;;;;;;;20.20;6.23;;;1.70;99.90;;;;;;5053333;28;20252;-81
2024/01/28 02:18:04;;;;;;;22.80;7.20;;;1.80;99.90;;;;;;5039745;28;20596;-81
2024/01/28 02:20:52;;;;;;;24.17;6.53;;;1.70;99.90;;;;;;5051154;28;20658;-81
2024/01/28 02:23:39;;;;;;;25.20;7.03;;;1.70;99.90;;;;;;5053900;28;20191;-81
2024/01/28 02:26:26;;;;;;;21.37;6.70;;;1.70;99.90;;;;;;5053664;28;20218;-81
2024/01/28 02:29:14;;;;;;;19.20;6.83;;;1.60;99.90;;;;;;5052320;28;20255;-81
2024/01/28 02:32:02;;;;;;;20.83;6.23;;;1.70;99.90;;;;;;5052274;28;20186;-81
2024/01/28 02:34:49;;;;;;;24.17;7.00;;;1.80;99.90;;;;;;5052808;28;20661;-80
2024/01/28 02:37:36;;;;;;;20.20;6.10;;;1.90;99.90;;;;;;5052981;28;20202;-80
2024/01/28 02:40:24;;;;;;;26.53;7.00;;;1.80;99.90;;;;;;5052638;28;20250;-81
2024/01/28 02:43:11;;;;;;;19.87;6.50;;;1.80;99.90;;;;;;5051858;28;20226;-81
2024/01/28 02:45:59;;;;;;;22.07;6.57;;;1.80;99.90;;;;;;5052674;28;20205;-81
2024/01/28 02:48:47;;;;;;;18.13;6.07;;;1.90;99.90;;;;;;5038823;28;21063;-81
2024/01/28 02:51:34;;;;;;;18.90;5.87;;;1.90;99.90;;;;;;5052984;28;20194;-80
2024/01/28 02:54:23;;;;;;;22.00;6.17;;;2.00;99.90;;;;;;5052200;28;20209;-80
2024/01/28 02:57:10;;;;;;;20.83;5.87;;;2.00;99.90;;;;;;5052127;28;20225;-81
2024/01/28 02:59:58;;;;;;;20.77;5.73;;;2.10;99.90;;;;;;5038459;28;20297;-80
2024/01/28 03:02:46;;;;;;;17.27;5.67;;;2.00;99.90;;;;;;5051822;28;20337;-81
2024/01/28 03:05:34;;;;;;;21.57;5.67;;;1.80;99.90;;;;;;5038105;28;20241;-81
2024/01/28 03:08:21;;;;;;;17.40;5.33;;;1.80;99.90;;;;;;5052689;28;20669;-81
2024/01/28 03:11:09;;;;;;;15.93;5.83;;;1.70;99.90;;;;;;5037674;28;20561;-81
2024/01/28 03:13:56;;;;;;;18.43;5.87;;;1.70;99.90;;;;;;5052707;28;20626;-81
2024/01/28 03:16:46;;;;;;;19.60;5.63;;;1.80;99.90;;;;;;5053110;28;20199;-81
2024/01/28 03:19:33;;;;;;;23.13;5.90;;;1.80;99.90;;;;;;5038202;28;20360;-81
2024/01/28 03:22:20;;;;;;;17.07;5.30;;;1.80;99.90;;;;;;5052351;28;20210;-81
2024/01/28 03:25:08;;;;;;;21.93;5.90;;;1.90;99.90;;;;;;5051725;28;20202;-81
2024/01/28 03:27:56;;;;;;;18.13;5.40;;;2.00;99.90;;;;;;5052289;28;20234;-81
2024/01/28 03:30:43;;;;;;;18.73;5.33;;;2.00;99.90;;;;;;5052289;28;20197;-81
2024/01/28 03:33:30;;;;;;;16.10;5.27;;;2.10;99.90;;;;;;5051312;28;20563;-81
2024/01/28 03:36:18;;;;;;;18.53;5.20;;;2.10;99.90;;;;;;5051534;28;20204;-81
2024/01/28 03:39:06;;;;;;;12.77;5.00;;;2.20;99.90;;;;;;5037105;28;20225;-80
2024/01/28 03:41:53;;;;;;;16.30;5.10;;;2.20;99.90;;;;;;5052487;28;20227;-81
2024/01/28 03:44:41;;;;;;;18.30;5.30;;;2.30;99.90;;;;;;5051535;28;20193;-80
2024/01/28 03:47:28;;;;;;;18.87;5.27;;;2.30;99.90;;;;;;5051471;28;20203;-80
2024/01/28 03:50:19;;;;;;;15.27;4.80;;;2.40;99.90;;;;;;5050911;28;20272;-81
2024/01/28 03:53:07;;;;;;;15.30;5.23;;;2.40;99.90;;;;;;5037255;28;20207;-81
2024/01/28 03:55:54;;;;;;;14.80;4.67;;;2.50;99.90;;;;;;5050946;28;20202;-81
2024/01/28 03:58:42;;;;;;;14.40;4.67;;;2.40;99.90;;;;;;5050774;28;20217;-81
2024/01/28 04:01:31;;;;;;;19.37;5.30;;;2.30;99.90;;;;;;5038329;28;20195;-81
2024/01/28 04:04:18;;;;;;;16.23;5.00;;;2.50;99.90;;;;;;5050545;28;20241;-81
2024/01/28 04:07:06;;;;;;;15.60;4.33;;;2.50;99.90;;;;;;5056102;28;20193;-81
2024/01/28 04:09:54;;;;;;;15.73;4.90;;;2.50;99.90;;;;;;5055696;28;20193;-81
2024/01/28 04:12:41;;;;;;;13.70;4.67;;;2.60;99.90;;;;;;5041606;28;20308;-81
2024/01/28 04:15:28;;;;;;;15.97;4.20;;;2.60;99.90;;;;;;5056286;28;20329;-81
2024/01/28 04:18:17;;;;;;;12.73;4.90;;;2.60;99.90;;;;;;5055707;28;20327;-81
2024/01/28 04:21:05;;;;;;;15.63;4.70;;;2.60;99.90;;;;;;5041454;28;20198;-80
2024/01/28 04:23:52;;;;;;;17.20;4.47;;;2.60;99.90;;;;;;5056008;28;20211;-81
2024/01/28 04:26:39;;;;;;;18.33;4.90;;;2.70;99.90;;;;;;5055443;28;20226;-81
2024/01/28 04:29:27;;;;;;;14.60;5.07;;;2.80;99.90;;;;;;5056006;28;20245;-80
2024/01/28 04:32:14;;;;;;;12.73;4.40;;;2.80;99.90;;;;;;5056782;28;20289;-81
2024/01/28 04:35:02;;;;;;;14.80;4.97;;;2.70;99.90;;;;;;5040707;28;20245;-80
2024/01/28 04:37:49;;;;;;;15.77;4.60;;;2.70;99.90;;;;;;5040557;28;20287;-81
2024/01/28 04:40:37;;;;;;;15.80;5.73;;;2.80;99.90;;;;;;5055760;28;20308;-81
2024/01/28 04:43:25;;;;;;;14.47;4.43;;;2.70;99.90;;;;;;5040436;28;20280;-81
2024/01/28 04:46:16;;;;;;;18.17;5.43;;;2.70;99.90;;;;;;5055738;28;20221;-81
2024/01/28 04:49:04;;;;;;;14.97;5.10;;;2.80;99.90;;;;;;5054354;28;20194;-81
2024/01/28 04:51:51;;;;;;;13.70;4.80;;;2.70;99.90;;;;;;5055546;28;20213;-81
2024/01/28 04:54:39;;;;;;;15.97;5.10;;;2.80;99.90;;;;;;5041321;28;20199;-81
2024/01/28 04:57:27;;;;;;;19.67;4.93;;;2.90;99.90;;;;;;5054680;28;20237;-81
2024/01/28 05:00:15;;;;;;;16.27;5.37;;;2.80;99.90;;;;;;5053575;28;20222;-80
2024/01/28 05:03:02;;;;;;;13.03;4.73;;;2.90;99.90;;;;;;5055399;28;20201;-80
2024/01/28 05:05:50;;;;;;;15.57;5.30;;;2.80;99.90;;;;;;5041157;28;20238;-81
2024/01/28 05:08:37;;;;;;;16.47;5.23;;;2.80;99.90;;;;;;5055358;28;20199;-81
2024/01/28 05:11:25;;;;;;;12.77;5.07;;;2.70;99.90;;;;;;5055016;28;20214;-81
2024/01/28 05:14:13;;;;;;;18.03;5.20;;;2.80;99.90;;;;;;5040331;28;20263;-81
2024/01/28 05:17:01;;;;;;;13.97;4.93;;;2.80;99.90;;;;;;5038588;28;20198;-81
2024/01/28 05:19:49;;;;;;;13.00;5.13;;;2.80;99.90;;;;;;5054906;28;20741;-81
2024/01/28 05:22:36;;;;;;;12.87;5.13;;;2.70;99.90;;;;;;5053804;28;20191;-81
2024/01/28 05:25:24;;;;;;;13.67;5.03;;;2.80;99.90;;;;;;5040190;28;20232;-81
2024/01/28 05:28:12;;;;;;;18.77;5.37;;;2.80;99.90;;;;;;5053660;28;20320;-81
2024/01/28 05:30:59;;;;;;;15.47;5.37;;;2.80;99.90;;;;;;5053986;28;20668;-81
2024/01/28 05:33:47;;;;;;;12.13;5.40;;;2.70;99.90;;;;;;5054946;28;20192;-81
2024/01/28 05:36:35;;;;;;;16.30;5.97;;;2.70;99.90;;;;;;5040262;28;20193;-81
2024/01/28 05:39:22;;;;;;;13.10;5.10;;;2.70;99.90;;;;;;5054124;28;20223;-80
2024/01/28 05:42:10;;;;;;;16.20;5.53;;;2.70;99.90;;;;;;5040045;28;20295;-81
2024/01/28 05:44:57;;;;;;;17.43;5.10;;;2.70;99.90;;;;;;5054137;28;20669;-81
2024/01/28 05:47:45;;;;;;;18.63;6.03;;;2.70;99.90;;;;;;5053898;28;20202;-81
2024/01/28 05:50:32;;;;;;;10.77;5.10;;;2.70;99.90;;;;;;5054860;28;20206;-81
2024/01/28 05:53:20;;;;;;;13.93;5.57;;;2.80;99.90;;;;;;5053924;28;20201;-81
2024/01/28 05:56:07;;;;;;;14.57;5.53;;;2.80;99.90;;;;;;5054389;28;20195;-81
2024/01/28 05:58:54;;;;;;;19.70;6.60;;;2.90;99.90;;;;;;5053598;28;20197;-81
2024/01/28 06:01:41;;;;;;;14.40;6.17;;;3.00;99.90;;;;;;5053709;28;20205;-81
2024/01/28 06:04:29;;;;;;;20.57;6.50;;;3.10;99.90;;;;;;5053231;28;20222;-81
2024/01/28 06:07:17;;;;;;;17.73;6.20;;;3.00;99.90;;;;;;5053631;28;20667;-81
2024/01/28 06:10:05;;;;;;;14.97;6.33;;;3.00;99.90;;;;;;5038907;28;20554;-81
2024/01/28 06:12:53;;;;;;;17.30;6.93;;;3.00;99.90;;;;;;5053600;28;20759;-81
2024/01/28 06:15:41;;;;;;;18.43;6.03;;;2.90;99.90;;;;;;5054358;28;20662;-81
2024/01/28 06:18:29;;;;;;;17.60;6.27;;;2.90;99.90;;;;;;5053683;28;20567;-81
2024/01/28 06:21:16;;;;;;;14.30;6.63;;;2.90;99.90;;;;;;5054629;28;20782;-81
2024/01/28 06:24:04;;;;;;;16.67;7.20;;;2.90;99.90;;;;;;5053417;28;20210;-81
2024/01/28 06:26:51;;;;;;;15.93;6.93;;;2.90;99.90;;;;;;5038540;28;20218;-81
2024/01/28 06:29:44;;;;;;;18.30;6.60;;;2.90;99.90;;;;;;5039945;28;20195;-81
2024/01/28 06:32:32;;;;;;;19.80;8.23;;;2.90;99.90;;;;;;5053797;28;20683;-81
2024/01/28 06:35:19;;;;;;;15.97;7.70;;;2.90;99.90;;;;;;5053656;28;20204;-81
2024/01/28 06:38:07;;;;;;;16.80;6.70;;;2.80;99.90;;;;;;5053601;28;20194;-80
2024/01/28 06:40:55;;;;;;;12.90;6.40;;;2.90;99.90;;;;;;5052245;28;20229;-80
2024/01/28 06:43:43;;;;;;;14.60;7.07;;;3.00;99.90;;;;;;5038466;28;20191;-80
2024/01/28 06:46:31;;;;;;;17.67;6.57;;;3.00;99.90;;;;;;5052844;28;20195;-81
2024/01/28 06:49:18;;;;;;;18.97;6.73;;;3.00;99.90;;;;;;5038591;28;20339;-79
2024/01/28 06:52:06;;;;;;;18.30;6.50;;;3.00;99.90;;;;;;5052070;28;20194;-81
2024/01/28 06:54:54;;;;;;;14.30;6.67;;;3.00;99.90;;;;;;5051952;28;20200;-81
2024/01/28 06:57:41;;;;;;;19.47;6.40;;;3.00;99.90;;;;;;5038363;28;20221;-81
2024/01/28 07:00:29;;;;;;;15.93;6.83;;;2.90;99.90;;;;;;5039208;28;20280;-81
2024/01/28 07:03:18;;;;;;;15.57;6.83;;;2.90;99.90;;;;;;5040711;28;20209;-81
2024/01/28 07:06:06;;;;;;;12.20;6.33;;;2.90;99.90;;;;;;5038045;28;20230;-80
2024/01/28 07:08:54;;;;;;;12.37;6.50;;;2.90;99.90;;;;;;5039099;28;20195;-81
2024/01/28 07:11:42;;;;;;;13.70;6.57;;;2.90;99.90;;;;;;5037954;28;20214;-82
2024/01/28 07:14:30;;;;;;;13.27;6.50;;;2.90;99.90;;;;;;5039071;28;20245;-81
2024/01/28 07:17:18;;;;;;;13.97;6.43;;;2.90;99.90;;;;;;5052478;28;20575;-81
2024/01/28 07:20:06;;;;;;;14.07;6.30;;;2.90;99.90;;;;;;5037304;28;20723;-81
2024/01/28 07:22:54;;;;;;;16.23;7.00;;;2.90;99.90;;;;;;5038356;28;20194;-81
2024/01/28 07:25:41;;;;;;;16.03;6.77;;;3.00;99.90;;;;;;5038080;28;20296;-81
2024/01/28 07:28:29;;;;;;;14.47;6.30;;;3.10;99.90;;;;;;5052694;28;20194;-81
2024/01/28 07:31:16;;;;;;;13.20;6.13;;;3.10;99.90;;;;;;5053371;28;20188;-81
2024/01/28 07:34:04;;;;;;;13.10;6.37;;;3.10;99.90;;;;;;5037951;28;20665;-81
2024/01/28 07:36:54;;;;;;;16.23;6.80;;;3.00;99.90;;;;;;5038039;28;20197;-81
2024/01/28 07:39:42;;;;;;;14.00;6.80;;;3.00;99.90;;;;;;5038063;28;20226;-81
2024/01/28 07:42:29;;;;;;;12.50;6.20;;;3.00;99.90;;;;;;5038444;28;20678;-81
2024/01/28 07:45:17;;;;;;;12.67;6.57;;;3.00;99.90;;;;;;5052577;28;20195;-80
2024/01/28 07:48:05;;;;;;;12.03;6.37;;;3.00;99.90;;;;;;5052080;28;20226;-80
2024/01/28 07:50:53;;;;;;;11.83;6.33;;;3.10;99.90;;;;;;5053443;28;20494;-81
2024/01/28 07:53:40;;;;;;;20.57;6.40;;;3.00;99.90;;;;;;5037359;28;20368;-81
2024/01/28 07:56:30;;;;;;;13.00;6.17;;;3.00;99.90;;;;;;5051970;28;20702;-80
2024/01/28 07:59:19;;;;;;;15.43;6.23;;;3.00;99.90;;;;;;5052509;28;20658;-80
2024/01/28 08:02:07;;;;;;;11.43;5.90;;;3.10;99.90;;;;;;5051832;28;20600;-81
2024/01/28 08:04:54;;;;;;;11.53;5.90;;;3.10;99.90;;;;;;5037569;28;20251;-82
2024/01/28 08:07:42;;;;;;;12.80;6.60;;;3.20;99.90;;;;;;5038146;28;20192;-82
2024/01/28 08:10:30;;;;;;;13.47;6.57;;;3.40;99.90;;;;;;5037237;28;20217;-82
2024/01/28 08:13:19;;;;;;;13.70;6.60;;;3.70;99.90;;;;;;5052249;28;20215;-81
2024/01/28 08:16:07;;;;;;;10.37;5.33;;;4.00;99.90;;;;;;5036936;28;20649;-82
2024/01/28 08:18:57;;;;;;;9.83;5.17;;;4.30;99.90;;;;;;5037497;28;20669;-81
2024/01/28 08:21:44;;;;;;;9.67;4.80;;;4.70;99.90;;;;;;5037607;28;20195;-82
2024/01/28 08:24:32;;;;;;;9.27;4.60;;;4.90;99.90;;;;;;5052273;28;20273;-81
2024/01/28 08:27:20;;;;;;;9.57;4.37;;;5.00;99.90;;;;;;5050934;28;20225;-82
2024/01/28 08:30:08;;;;;;;8.33;4.07;;;4.80;99.90;;;;;;5051574;28;20655;-81
2024/01/28 08:32:56;;;;;;;6.33;3.90;;;5.00;99.90;;;;;;5036340;28;20230;-81
2024/01/28 08:35:43;;;;;;;7.83;4.47;;;5.10;99.90;;;;;;5037934;28;20203;-81
2024/01/28 08:38:32;;;;;;;6.77;3.40;;;5.50;99.90;;;;;;5052131;28;20639;-81
2024/01/28 08:41:19;;;;;;;10.43;3.90;;;5.60;99.90;;;;;;5051818;28;20233;-81
2024/01/28 08:44:07;;;;;;;5.77;3.23;;;5.80;99.90;;;;;;5050804;28;20193;-81
2024/01/28 08:46:54;;;;;;;8.77;3.27;;;5.80;99.90;;;;;;5051424;28;20285;-82
2024/01/28 08:49:42;;;;;;;7.17;3.40;;;5.70;99.90;;;;;;5050995;28;20200;-81
2024/01/28 08:52:30;;;;;;;5.23;3.10;;;5.60;99.90;;;;;;5054368;28;20256;-80
2024/01/28 08:55:18;;;;;;;7.13;3.50;;;5.50;99.90;;;;;;5040853;28;20229;-81
2024/01/28 08:58:05;;;;;;;7.13;3.20;;;5.30;99.90;;;;;;5026321;28;20223;-81
2024/01/28 09:00:53;;;;;;;6.77;3.10;;;5.00;99.90;;;;;;5055351;28;20212;-82
2024/01/28 09:03:41;;;;;;;7.60;3.93;;;4.90;99.90;;;;;;5054165;28;20189;-82
2024/01/28 09:06:29;;;;;;;8.10;3.90;;;5.00;99.90;;;;;;5054097;28;20192;-83
2024/01/28 09:09:16;;;;;;;7.03;3.10;;;4.90;99.90;;;;;;5054944;28;20325;-81
2024/01/28 09:12:04;;;;;;;5.27;3.03;;;4.90;99.90;;;;;;5055114;28;20589;-79
2024/01/28 09:14:52;;;;;;;5.63;2.83;;;4.80;99.90;;;;;;5054549;28;20198;-78
2024/01/28 09:17:41;;;;;;;6.63;3.20;;;4.70;99.90;;;;;;5054592;28;20205;-79
2024/01/28 09:20:28;;;;;;;6.67;3.27;;;4.60;99.90;;;;;;5054930;28;20230;-79
2024/01/28 09:23:15;;;;;;;6.93;3.57;;;4.60;99.90;;;;;;5039125;28;20650;-78
2024/01/28 09:26:03;;;;;;;5.90;3.07;;;4.90;99.90;;;;;;5055012;28;20660;-78
2024/01/28 09:28:51;;;;;;;6.13;2.87;;;4.80;99.90;;;;;;5054924;28;20199;-81
2024/01/28 09:31:44;;;;;;;8.63;3.07;;;4.90;99.90;;;;;;5038631;28;20262;-80
2024/01/28 09:34:32;;;;;;;4.50;2.90;;;4.90;99.90;;;;;;5054323;28;20620;-81
2024/01/28 09:37:19;;;;;;;4.47;3.10;;;5.10;99.90;;;;;;5055314;28;20587;-82
2024/01/28 09:40:07;;;;;;;8.93;3.07;;;5.20;99.90;;;;;;5054028;28;20584;-82
2024/01/28 09:43:08;;;;;;;5.87;2.90;;;5.30;99.90;;;;;;5053984;28;20218;-81
2024/01/28 09:45:57;;;;;;;5.03;2.50;;;5.40;99.90;;;;;;5039369;28;20205;-82
2024/01/28 09:48:46;;;;;;;4.07;2.60;;;5.60;99.90;;;;;;5039789;28;20199;-82
2024/01/28 09:51:34;;;;;;;4.33;2.33;;;5.80;99.90;;;;;;5039833;28;20195;-81
2024/01/28 09:54:22;;;;;;;7.50;2.33;;;6.20;99.90;;;;;;5053854;28;20206;-81
2024/01/28 09:57:11;;;;;;;5.50;2.20;;;6.50;99.90;;;;;;5039537;28;20211;-82
2024/01/28 09:59:59;;;;;;;4.57;2.47;;;6.60;99.90;;;;;;5039069;28;20213;-82
2024/01/28 10:02:47;;;;;;;3.60;2.30;;;6.70;99.90;;;;;;5038799;28;20207;-82
2024/01/28 10:05:34;;;;;;;5.80;2.57;;;6.60;99.90;;;;;;5054249;28;20224;-81
2024/01/28 10:08:25;;;;;;;5.47;2.53;;;6.20;99.90;;;;;;5053118;28;20200;-81
2024/01/28 10:11:14;;;;;;;6.43;2.80;;;5.70;99.90;;;;;;5054295;28;20195;-81
2024/01/28 10:14:02;;;;;;;6.20;2.90;;;5.50;99.90;;;;;;5038709;28;20631;-82
2024/01/28 10:16:50;;;;;;;4.77;2.47;;;5.60;99.90;;;;;;5038720;28;20662;-81
2024/01/28 10:19:41;;;;;;;5.07;2.70;;;5.60;99.90;;;;;;5053823;28;20287;-81
2024/01/28 10:22:30;;;;;;;5.23;2.63;;;5.70;99.90;;;;;;5052774;28;20334;-81
2024/01/28 10:25:18;;;;;;;4.50;2.30;;;6.00;99.90;;;;;;5053751;28;20661;-81
2024/01/28 10:28:06;;;;;;;7.30;2.80;;;6.20;99.90;;;;;;5037656;28;20208;-81
2024/01/28 10:30:53;;;;;;;4.07;2.37;;;6.10;99.90;;;;;;5053159;28;20191;-81
2024/01/28 10:33:41;;;;;;;6.43;2.20;;;6.30;99.90;;;;;;5053821;28;20195;-80
2024/01/28 10:36:33;;;;;;;5.10;2.60;;;6.20;99.90;;;;;;5051753;28;20196;-80
2024/01/28 10:39:22;;;;;;;4.63;2.60;;;6.20;99.90;;;;;;5052771;28;20199;-81
2024/01/28 10:42:14;;;;;;;4.03;2.70;;;6.50;99.90;;;;;;5053843;28;20219;-81
2024/01/28 10:45:08;;;;;;;6.53;3.17;;;6.50;99.90;;;;;;5052739;28;20196;-82
2024/01/28 10:48:05;;;;;;;8.70;3.30;;;6.70;99.90;;;;;;5050549;28;20196;-81
2024/01/28 10:50:55;;;;;;;6.47;3.23;;;6.70;99.90;;;;;;5052721;28;20723;-81
2024/01/28 10:53:45;;;;;;;7.03;3.20;;;6.40;99.90;;;;;;5024315;28;20540;-82
2024/01/28 10:56:33;;;;;;;7.63;3.37;;;6.40;99.90;;;;;;5051425;28;20219;-81
2024/01/28 10:59:20;;;;;;;8.17;3.60;;;6.30;99.90;;;;;;5051481;28;20369;-81
2024/01/28 11:02:09;;;;;;;7.93;3.20;;;6.50;99.90;;;;;;5051825;28;20691;-81
2024/01/28 11:04:57;;;;;;;5.23;3.00;;;6.60;99.90;;;;;;5052881;28;20229;-81
2024/01/28 11:07:47;;;;;;;5.60;3.30;;;6.50;99.90;;;;;;5038457;28;20203;-80
2024/01/28 11:10:37;;;;;;;7.90;3.17;;;6.50;99.90;;;;;;5052662;28;20277;-81
2024/01/28 11:13:25;;;;;;;6.00;3.13;;;6.30;99.90;;;;;;5051890;28;20570;-81
2024/01/28 11:16:14;;;;;;;6.03;3.17;;;6.20;99.90;;;;;;5036418;28;20245;-81
2024/01/28 11:19:05;;;;;;;6.50;3.53;;;6.10;99.90;;;;;;5038227;28;20195;-82
2024/01/28 11:21:58;;;;;;;7.10;3.10;;;6.10;99.90;;;;;;5050913;28;20303;-81
2024/01/28 11:24:52;;;;;;;6.23;3.33;;;6.10;99.90;;;;;;5038005;28;20217;-81
2024/01/28 11:27:41;;;;;;;7.00;3.57;;;6.00;99.90;;;;;;5037477;28;20307;-82
2024/01/28 11:30:29;;;;;;;5.23;3.47;;;5.90;99.90;;;;;;5037882;28;20238;-81
2024/01/28 11:33:18;;;;;;;6.50;3.67;;;5.90;99.90;;;;;;5052152;28;20230;-82
2024/01/28 11:36:06;;;;;;;6.97;3.90;;;5.80;99.90;;;;;;5037970;28;20229;-81
2024/01/28 11:39:04;;;;;;;6.33;4.30;;;5.80;99.90;;;;;;5050861;28;20197;-82
2024/01/28 11:41:54;;;;;;;6.77;4.30;;;5.80;99.90;;;;;;5037132;28;20439;-81
2024/01/28 11:44:43;;;;;;;8.77;4.50;;;5.40;99.90;;;;;;5051971;28;20237;-80
2024/01/28 11:47:35;;;;;;;8.93;4.73;;;5.50;99.90;;;;;;5038783;28;20194;-81
2024/01/28 11:50:23;;;;;;;9.63;5.10;;;5.40;99.90;;;;;;5037340;28;20608;-80
2024/01/28 11:53:11;;;;;;;10.20;5.53;;;5.30;99.90;;;;;;5038054;28;20228;-82
2024/01/28 11:56:07;;;;;;;12.67;5.97;;;5.40;99.90;;;;;;5051783;28;20253;-81
2024/01/28 11:58:56;;;;;;;10.07;6.43;;;5.40;99.90;;;;;;5037492;28;20198;-81
2024/01/28 12:01:44;;;;;;;12.97;7.40;;;5.50;99.90;;;;;;5051965;28;20220;-81
2024/01/28 12:04:31;;;;;;;12.83;7.63;;;5.50;99.90;;;;;;5037614;28;20308;-81
2024/01/28 12:07:22;;;;;;;14.17;7.57;;;5.50;99.90;;;;;;5052299;28;20668;-81
2024/01/28 12:10:12;;;;;;;10.63;6.93;;;5.30;99.90;;;;;;5051755;28;20221;-81
2024/01/28 12:13:00;;;;;;;12.13;6.83;;;5.20;99.90;;;;;;5037761;28;20215;-81
2024/01/28 12:15:48;;;;;;;12.83;7.47;;;5.20;99.90;;;;;;5051037;28;20199;-81
2024/01/28 12:18:40;;;;;;;13.67;7.10;;;5.20;99.90;;;;;;5037051;28;20192;-80
2024/01/28 12:21:28;;;;;;;11.50;7.00;;;5.30;99.90;;;;;;5037613;28;20327;-81
2024/01/28 12:24:16;;;;;;;12.97;6.77;;;5.40;99.90;;;;;;5051235;28;20314;-81
2024/01/28 12:27:04;;;;;;;12.17;7.40;;;5.40;99.90;;;;;;5054285;28;20224;-81
2024/01/28 12:29:53;;;;;;;12.90;7.20;;;5.30;99.90;;;;;;5055625;28;20580;-80
2024/01/28 12:32:44;;;;;;;14.07;8.27;;;5.30;99.90;;;;;;5040644;28;20252;-80
2024/01/28 12:35:31;;;;;;;12.50;7.30;;;5.20;99.90;;;;;;5039419;28;20184;-80
2024/01/28 12:38:19;;;;;;;12.87;7.90;;;5.20;99.90;;;;;;5055977;28;20256;-80
2024/01/28 12:41:07;;;;;;;10.13;6.77;;;5.20;99.90;;;;;;5054816;28;20255;-81
2024/01/28 12:43:55;;;;;;;12.47;7.77;;;5.20;99.90;;;;;;5055085;28;20278;-81
2024/01/28 12:46:42;;;;;;;14.33;7.93;;;5.20;99.90;;;;;;5055089;28;20242;-81
2024/01/28 12:49:30;;;;;;;15.60;8.13;;;5.20;99.90;;;;;;5039664;28;20196;-81
2024/01/28 12:52:18;;;;;;;12.63;7.77;;;5.30;99.90;;;;;;5040684;28;20204;-81
2024/01/28 12:55:06;;;;;;;14.73;7.90;;;5.30;99.90;;;;;;5055385;28;20190;-80
2024/01/28 12:57:54;;;;;;;14.80;7.97;;;5.20;99.90;;;;;;5055934;28;20325;-81
2024/01/28 13:00:43;;;;;;;14.30;8.30;;;5.20;99.90;;;;;;5038885;28;20242;-80
2024/01/28 13:03:30;;;;;;;14.03;7.80;;;5.20;99.90;;;;;;5054211;28;20278;-81
2024/01/28 13:06:18;;;;;;;21.13;8.53;;;5.30;99.90;;;;;;5038623;28;20227;-81
2024/01/28 13:09:09;;;;;;;15.27;7.90;;;5.20;99.90;;;;;;5054200;28;20226;-81
2024/01/28 13:11:57;;;;;;;15.93;7.50;;;5.10;99.90;;;;;;5054560;28;20220;-81
2024/01/28 13:14:45;;;;;;;13.97;7.53;;;5.20;99.90;;;;;;5054511;28;20282;-81
2024/01/28 13:17:32;;;;;;;13.27;7.07;;;5.20;99.90;;;;;;5040404;28;20695;-80
2024/01/28 13:20:23;;;;;;;11.47;7.17;;;5.20;99.90;;;;;;5055752;28;20202;-81
2024/01/28 13:23:10;;;;;;;12.33;6.87;;;5.20;99.90;;;;;;5040327;28;20195;-81
2024/01/28 13:25:58;;;;;;;13.87;7.50;;;5.10;99.90;;;;;;5054907;28;20207;-81
2024/01/28 13:28:45;;;;;;;16.43;7.87;;;5.10;99.90;;;;;;5053817;28;20643;-81
2024/01/28 13:31:33;;;;;;;15.90;8.07;;;5.20;99.90;;;;;;5039095;28;20198;-80
2024/01/28 13:34:20;;;;;;;18.43;7.43;;;5.30;99.90;;;;;;5054142;28;20198;-80
2024/01/28 13:37:08;;;;;;;14.80;7.37;;;5.20;99.90;;;;;;5039219;28;20187;-81
2024/01/28 13:39:56;;;;;;;16.17;7.47;;;5.30;99.90;;;;;;5040608;28;20238;-81
2024/01/28 13:42:43;;;;;;;11.63;6.67;;;5.20;99.90;;;;;;5054410;28;20720;-81
2024/01/28 13:45:31;;;;;;;11.13;6.27;;;5.40;99.90;;;;;;5055203;28;20659;-80
2024/01/28 13:48:19;;;;;;;12.47;6.40;;;5.50;99.90;;;;;;5039206;28;20199;-81
2024/01/28 13:51:07;;;;;;;12.13;6.10;;;5.60;99.90;;;;;;5038308;28;20282;-80
2024/01/28 13:53:54;;;;;;;12.37;6.20;;;5.70;99.90;;;;;;5039852;28;20237;-81
2024/01/28 13:56:41;;;;;;;13.70;6.40;;;5.80;99.90;;;;;;5054312;28;20218;-80
2024/01/28 13:59:29;;;;;;;14.73;6.67;;;5.70;99.90;;;;;;5039010;28;20281;-80
2024/01/28 14:02:16;;;;;;;11.60;5.87;;;5.70;99.90;;;;;;5054078;28;20214;-80
2024/01/28 14:05:07;;;;;;;14.67;6.00;;;5.60;99.90;;;;;;5052991;28;20288;-81
2024/01/28 14:07:55;;;;;;;12.43;6.03;;;5.60;99.90;;;;;;5054539;28;20566;-81
2024/01/28 14:10:42;;;;;;;12.33;6.40;;;5.50;99.90;;;;;;5038772;28;20327;-81
2024/01/28 14:13:29;;;;;;;10.43;5.27;;;5.60;99.90;;;;;;5039255;28;20187;-81
2024/01/28 14:16:17;;;;;;;11.53;5.20;;;5.50;99.90;;;;;;5052351;28;20656;-82
2024/01/28 14:19:04;;;;;;;8.63;5.10;;;5.60;99.90;;;;;;5053904;28;20205;-81
2024/01/28 14:21:52;;;;;;;12.03;5.37;;;5.50;99.90;;;;;;5052194;28;20226;-81
2024/01/28 14:24:39;;;;;;;10.53;5.40;;;5.40;99.90;;;;;;5052587;28;20279;-81
2024/01/28 14:27:27;;;;;;;12.80;5.50;;;5.30;99.90;;;;;;5053731;28;20228;-80
2024/01/28 14:30:14;;;;;;;11.00;5.23;;;5.30;99.90;;;;;;5053141;28;20200;-80
2024/01/28 14:33:02;;;;;;;10.90;5.30;;;5.20;99.90;;;;;;5052669;28;20251;-81
2024/01/28 14:35:51;;;;;;;10.27;5.00;;;5.10;99.90;;;;;;5053132;28;20198;-79
2024/01/28 14:38:38;;;;;;;10.73;5.53;;;5.10;99.90;;;;;;5052342;28;20204;-82